Search for airport 
image banner adimage banner adimage banner ad
image banner ad

17PS - Mountain Crest

Located in Tidioute, United States

ICAO - 17PS, IATA -

Data provided by Airmate  

General information

Coordinates: N41°34'45" W79°26'30"
Elevation is 1641 feet MSL.
 
View others Airports in Pennsylvania

Operational data

Special qualification required
Current time UTC:
Current local time:
Weather at : KFKL - Venango Rgnl ( 41 km )
METAR: KFKL 091507Z AUTO 14009KT 6SM RA BR OVC009 03/02 A2998 RMK AO2 CIG 008V012 P0003
TAF: KFKL 091120Z 0912/1012 14003KT P6SM -RA BKN050 FM091500 12007KT 5SM -RA BR OVC010 FM091700 06006KT 3SM RA BR OVC005 FM100100 02006KT 4SM -RA BR OVC005 FM100400 36004KT P6SM BKN006 FM100900 29005KT P6SM BKN010
View NOTAMs / SUP AIP / TFR affecting this airport [VIEW]
Communications frequencies: [VIEW]

Runways:

RWY identifierQFULength (ft)Width (ft)SurfaceLDA (ft)
012170100GRASS
192170100GRASS

Airport contact information

Address: Tidioute United States

Satellite view of 17PS